createdAt,value
2018-12-20T00:00:05.431Z,5.86
2018-12-20T00:01:05.415Z,5.78
2018-12-20T00:02:05.370Z,5.92
2018-12-20T00:03:05.390Z,5.82
2018-12-20T00:04:05.312Z,5.86
2018-12-20T00:05:05.376Z,5.85
2018-12-20T00:06:05.291Z,5.92
2018-12-20T00:07:05.229Z,5.86
2018-12-20T00:08:05.199Z,5.85
2018-12-20T00:09:05.309Z,5.85
2018-12-20T00:10:05.199Z,5.85
2018-12-20T00:11:05.171Z,5.86
2018-12-20T00:12:05.087Z,6.00
2018-12-20T00:13:05.098Z,5.96
2018-12-20T00:14:05.057Z,5.88
2018-12-20T00:15:05.002Z,5.88
2018-12-20T00:16:05.017Z,5.91
2018-12-20T00:17:04.946Z,5.82
2018-12-20T00:18:04.930Z,5.83
2018-12-20T00:19:04.893Z,5.78
2018-12-20T00:20:04.973Z,5.83
2018-12-20T00:21:04.958Z,5.85
2018-12-20T00:22:04.829Z,5.83
2018-12-20T00:23:04.777Z,5.77
2018-12-20T00:24:04.766Z,5.86
2018-12-20T00:25:04.720Z,5.78
2018-12-20T00:26:06.305Z,5.82
2018-12-20T00:27:04.805Z,5.85
2018-12-20T00:28:04.686Z,5.86
2018-12-20T00:29:04.659Z,5.88
2018-12-20T00:30:04.637Z,5.93
2018-12-20T00:31:04.558Z,5.91
2018-12-20T00:32:05.392Z,5.98
2018-12-20T00:33:04.600Z,5.95
2018-12-20T00:34:04.539Z,5.88
2018-12-20T00:35:04.520Z,5.93
2018-12-20T00:36:04.459Z,5.96
2018-12-20T00:37:04.385Z,5.89
2018-12-20T00:38:04.385Z,6.00
2018-12-20T00:39:04.335Z,6.06
2018-12-20T00:40:06.645Z,6.03
2018-12-20T00:41:04.271Z,6.00
2018-12-20T00:42:04.312Z,6.03
2018-12-20T00:43:04.241Z,6.04
2018-12-20T00:44:04.188Z,6.13
2018-12-20T00:45:04.238Z,5.98
2018-12-20T00:46:04.134Z,5.98
2018-12-20T00:47:04.224Z,6.04
2018-12-20T00:48:04.098Z,6.00
2018-12-20T00:49:04.073Z,5.91
2018-12-20T00:50:04.218Z,6.00
2018-12-20T00:51:03.993Z,5.98
2018-12-20T00:52:03.988Z,5.95
2018-12-20T00:53:03.936Z,5.93
2018-12-20T00:54:04.104Z,5.89
2018-12-20T00:55:03.879Z,5.86
2018-12-20T00:56:04.003Z,5.85
2018-12-20T00:57:03.880Z,5.93
2018-12-20T00:58:03.840Z,5.92
2018-12-20T00:59:03.920Z,5.95
2018-12-20T01:00:03.772Z,5.89
2018-12-20T01:01:03.715Z,5.86
2018-12-20T01:02:03.699Z,5.93
2018-12-20T01:03:03.718Z,5.93
2018-12-20T01:04:04.514Z,6.01
2018-12-20T01:05:03.688Z,5.96
2018-12-20T01:06:03.591Z,6.01
2018-12-20T01:07:03.660Z,6.10
2018-12-20T01:08:03.522Z,5.96
2018-12-20T01:09:03.487Z,6.10
2018-12-20T01:10:03.496Z,6.06
2018-12-20T01:11:03.479Z,6.00
2018-12-20T01:12:03.466Z,6.06
2018-12-20T01:13:03.477Z,6.06
2018-12-20T01:14:03.460Z,6.18
2018-12-20T01:15:03.473Z,6.07
2018-12-20T01:16:03.294Z,6.14
2018-12-20T01:17:03.538Z,6.14
2018-12-20T01:18:03.267Z,6.10
2018-12-20T01:19:03.281Z,6.11
2018-12-20T01:20:03.231Z,6.18
2018-12-20T01:21:03.153Z,6.13
2018-12-20T01:22:03.166Z,6.14
2018-12-20T01:23:03.109Z,6.04
2018-12-20T01:24:03.183Z,6.03
2018-12-20T01:25:03.141Z,6.06
2018-12-20T01:26:03.053Z,6.04
2018-12-20T01:27:02.986Z,6.07
2018-12-20T01:28:03.069Z,5.98
2018-12-20T01:29:03.059Z,6.01
2018-12-20T01:30:03.059Z,6.01
2018-12-20T01:31:03.701Z,5.98
2018-12-20T01:32:02.843Z,6.11
2018-12-20T01:33:02.973Z,6.11
2018-12-20T01:34:02.873Z,6.09
2018-12-20T01:35:02.785Z,6.09
2018-12-20T01:36:02.837Z,6.11
2018-12-20T01:37:02.703Z,6.10
2018-12-20T01:38:02.787Z,6.16
2018-12-20T01:39:02.726Z,6.10
2018-12-20T01:40:02.644Z,6.16
2018-12-20T01:41:03.470Z,6.06
2018-12-20T01:42:02.581Z,6.14
2018-12-20T01:43:02.674Z,6.19
2018-12-20T01:44:02.535Z,6.06
2018-12-20T01:45:02.503Z,6.13
2018-12-20T01:46:02.547Z,6.14
2018-12-20T01:47:02.472Z,6.09
2018-12-20T01:48:02.400Z,6.22
2018-12-20T01:49:02.369Z,6.18
2018-12-20T01:50:02.341Z,6.13
2018-12-20T01:51:02.344Z,6.16
2018-12-20T01:52:02.319Z,6.14
2018-12-20T01:53:02.403Z,6.13
2018-12-20T01:54:02.316Z,6.16
2018-12-20T01:55:02.217Z,6.13
2018-12-20T01:56:02.331Z,6.14
2018-12-20T01:57:02.374Z,6.11
2018-12-20T01:58:04.370Z,6.25
2018-12-20T01:59:02.177Z,6.10
2018-12-20T02:00:02.118Z,6.16
2018-12-20T02:01:02.037Z,6.07
2018-12-20T02:02:02.011Z,6.06
2018-12-20T02:03:01.983Z,6.09
2018-12-20T02:04:02.139Z,6.10
2018-12-20T02:05:02.018Z,6.10
2018-12-20T02:06:01.895Z,6.01
2018-12-20T02:07:01.868Z,6.03
2018-12-20T02:08:01.986Z,6.04
2018-12-20T02:09:01.982Z,6.09
2018-12-20T02:10:01.785Z,6.01
2018-12-20T02:11:02.002Z,6.06
2018-12-20T02:12:01.798Z,6.04
2018-12-20T02:13:01.714Z,5.93
2018-12-20T02:14:01.683Z,6.00
2018-12-20T02:15:02.435Z,6.03
2018-12-20T02:16:01.619Z,6.06
2018-12-20T02:17:01.798Z,6.07
2018-12-20T02:18:01.711Z,6.07
2018-12-20T02:19:01.535Z,6.09
2018-12-20T02:20:02.257Z,6.11
2018-12-20T02:21:01.618Z,6.09
2018-12-20T02:22:01.563Z,6.09
2018-12-20T02:23:01.424Z,6.18
2018-12-20T02:24:01.415Z,6.09
2018-12-20T02:25:01.367Z,6.11
2018-12-20T02:26:01.340Z,6.13
2018-12-20T02:27:01.340Z,6.18
2018-12-20T02:28:01.347Z,6.14
2018-12-20T02:29:01.462Z,6.07
2018-12-20T02:30:01.238Z,6.06
2018-12-20T02:31:01.204Z,6.10
2018-12-20T02:32:01.189Z,6.07
2018-12-20T02:33:01.145Z,6.18
2018-12-20T02:34:01.377Z,6.13
2018-12-20T02:35:01.233Z,6.11
2018-12-20T02:36:01.304Z,6.10
2018-12-20T02:37:01.153Z,6.13
2018-12-20T02:38:01.129Z,6.10
2018-12-20T02:39:01.100Z,6.07
2018-12-20T02:40:00.981Z,6.06
2018-12-20T02:41:03.321Z,6.07
2018-12-20T02:42:01.098Z,6.13
2018-12-20T02:43:01.029Z,6.10
2018-12-20T02:44:00.902Z,6.11
2018-12-20T02:45:00.812Z,6.09
2018-12-20T02:46:00.785Z,6.13
2018-12-20T02:47:01.023Z,6.13
2018-12-20T02:48:00.728Z,6.10
2018-12-20T02:49:00.701Z,6.10
2018-12-20T02:50:00.700Z,6.18
2018-12-20T02:51:00.764Z,6.13
2018-12-20T02:52:00.641Z,6.10
2018-12-20T02:53:00.601Z,6.16
2018-12-20T02:54:00.562Z,6.11
2018-12-20T02:55:00.534Z,6.21
2018-12-20T02:56:00.521Z,6.30
2018-12-20T02:57:00.624Z,6.25
2018-12-20T02:58:00.687Z,6.30
2018-12-20T02:59:00.442Z,6.29
2018-12-20T03:00:00.401Z,6.29
2018-12-20T03:01:00.496Z,6.26
2018-12-20T03:02:00.632Z,6.33
2018-12-20T03:03:04.064Z,6.33
2018-12-20T03:04:00.297Z,6.33
2018-12-20T03:05:00.413Z,6.36
2018-12-20T03:06:00.227Z,6.30
2018-12-20T03:07:00.210Z,6.29
2018-12-20T03:08:00.321Z,6.30
2018-12-20T03:09:00.147Z,6.32
2018-12-20T03:10:00.179Z,6.29
2018-12-20T03:11:00.353Z,6.32
2018-12-20T03:12:00.060Z,6.32
2018-12-20T03:13:00.304Z,6.30
2018-12-20T03:14:00.297Z,6.22
2018-12-20T03:14:59.991Z,6.13
2018-12-20T03:16:00.241Z,6.16
2018-12-20T03:16:59.957Z,6.25
2018-12-20T03:18:00.091Z,6.10
2018-12-20T03:19:00.073Z,6.13
2018-12-20T03:20:00.112Z,6.16
2018-12-20T03:21:00.027Z,6.14
2018-12-20T03:21:59.968Z,6.26
2018-12-20T03:22:59.925Z,6.25
2018-12-20T03:23:59.815Z,6.40
2018-12-20T03:24:59.776Z,6.33
2018-12-20T03:25:59.672Z,6.36
2018-12-20T03:26:59.651Z,6.43
2018-12-20T03:27:59.632Z,6.41
2018-12-20T03:28:59.589Z,6.41
2018-12-20T03:29:59.559Z,6.43
2018-12-20T03:30:59.636Z,6.35
2018-12-20T03:31:59.593Z,6.41
2018-12-20T03:32:59.732Z,6.33
2018-12-20T03:33:59.572Z,6.35
2018-12-20T03:34:59.421Z,6.41
2018-12-20T03:35:59.459Z,6.32
2018-12-20T03:36:59.384Z,6.40
2018-12-20T03:37:59.378Z,6.33
2018-12-20T03:38:59.312Z,6.32
2018-12-20T03:39:59.320Z,6.32
2018-12-20T03:40:59.392Z,6.28
2018-12-20T03:41:59.224Z,6.25
2018-12-20T03:42:59.398Z,6.10
2018-12-20T03:43:59.171Z,6.25
2018-12-20T03:44:59.268Z,6.25
2018-12-20T03:45:59.246Z,6.25
2018-12-20T03:46:59.283Z,6.30
2018-12-20T03:47:59.173Z,6.28
2018-12-20T03:48:59.225Z,6.30
2018-12-20T03:49:59.037Z,6.33
2018-12-20T03:50:59.023Z,6.38
2018-12-20T03:51:59.054Z,6.25
2018-12-20T03:52:58.974Z,6.19
2018-12-20T03:53:58.928Z,6.30
2018-12-20T03:54:59.122Z,6.25
2018-12-20T03:55:59.153Z,6.30
2018-12-20T03:56:58.810Z,6.29
2018-12-20T03:57:58.917Z,6.14
2018-12-20T03:58:58.777Z,6.25
2018-12-20T03:59:58.723Z,6.11
2018-12-20T04:00:58.788Z,6.11
2018-12-20T04:01:58.692Z,6.10
2018-12-20T04:02:58.731Z,6.18
2018-12-20T04:03:58.612Z,6.13
2018-12-20T04:04:58.584Z,6.26
2018-12-20T04:05:58.817Z,6.25
2018-12-20T04:06:58.625Z,6.22
2018-12-20T04:07:58.520Z,6.26
2018-12-20T04:08:58.501Z,6.22
2018-12-20T04:09:58.471Z,6.22
2018-12-20T04:10:58.433Z,6.35
2018-12-20T04:11:58.389Z,6.29
2018-12-20T04:12:58.557Z,6.32
2018-12-20T04:13:58.334Z,6.29
2018-12-20T04:14:58.470Z,6.30
2018-12-20T04:15:58.287Z,6.25
2018-12-20T04:16:58.298Z,6.32
2018-12-20T04:17:58.234Z,6.33
2018-12-20T04:18:58.316Z,6.29
2018-12-20T04:19:58.167Z,6.30
2018-12-20T04:20:58.212Z,6.36
2018-12-20T04:21:58.208Z,6.36
2018-12-20T04:22:58.084Z,6.33
2018-12-20T04:23:58.055Z,6.26
2018-12-20T04:24:58.177Z,6.26
2018-12-20T04:25:58.006Z,6.32
2018-12-20T04:26:57.972Z,6.32
2018-12-20T04:27:58.052Z,6.35
2018-12-20T04:28:58.065Z,6.43
2018-12-20T04:29:58.011Z,6.36
2018-12-20T04:30:57.861Z,6.41
2018-12-20T04:31:57.874Z,6.38
2018-12-20T04:32:57.975Z,6.41
2018-12-20T04:33:57.798Z,6.40
2018-12-20T04:34:57.752Z,6.43
2018-12-20T04:35:57.986Z,6.38
2018-12-20T04:36:57.692Z,6.35
2018-12-20T04:37:57.666Z,6.36
2018-12-20T04:38:57.755Z,6.38
2018-12-20T04:39:57.810Z,6.48
2018-12-20T04:40:57.645Z,6.35
2018-12-20T04:41:57.565Z,6.48
2018-12-20T04:42:57.529Z,6.41
2018-12-20T04:43:57.560Z,6.50
2018-12-20T04:44:57.471Z,6.48
2018-12-20T04:45:57.589Z,6.40
2018-12-20T04:46:59.529Z,6.48
2018-12-20T04:47:57.503Z,6.47
2018-12-20T04:48:57.418Z,6.41
2018-12-20T04:49:58.091Z,6.40
2018-12-20T04:50:57.305Z,6.43
2018-12-20T04:51:57.322Z,6.40
2018-12-20T04:52:57.253Z,6.50
2018-12-20T04:53:57.220Z,6.46
2018-12-20T04:54:57.387Z,6.40
2018-12-20T04:55:57.182Z,6.43
2018-12-20T04:56:57.137Z,6.44
2018-12-20T04:57:57.138Z,6.38
2018-12-20T04:58:57.081Z,6.38
2018-12-20T04:59:57.249Z,6.36
2018-12-20T05:00:57.122Z,6.38
2018-12-20T05:01:57.230Z,6.41
2018-12-20T05:02:56.970Z,6.38
2018-12-20T05:03:57.125Z,6.47
2018-12-20T05:04:56.945Z,6.38
2018-12-20T05:05:56.891Z,6.46
2018-12-20T05:06:56.860Z,6.36
2018-12-20T05:07:57.101Z,6.41
2018-12-20T05:08:56.801Z,6.41
2018-12-20T05:09:57.021Z,6.35
2018-12-20T05:10:56.792Z,6.41
2018-12-20T05:11:56.863Z,6.43
2018-12-20T05:12:56.689Z,6.44
2018-12-20T05:13:56.866Z,6.46
2018-12-20T05:14:56.809Z,6.38
2018-12-20T05:15:56.898Z,6.47
2018-12-20T05:16:56.786Z,6.44
2018-12-20T05:17:56.659Z,6.51
2018-12-20T05:18:56.594Z,6.46
2018-12-20T05:19:56.507Z,6.53
2018-12-20T05:20:56.732Z,6.47
2018-12-20T05:21:57.980Z,6.58
2018-12-20T05:22:56.409Z,6.51
2018-12-20T05:23:56.509Z,6.48
2018-12-20T05:24:56.596Z,6.58
2018-12-20T05:25:56.328Z,6.56
2018-12-20T05:26:56.369Z,6.53
2018-12-20T05:27:56.267Z,6.53
2018-12-20T05:28:56.368Z,6.62
2018-12-20T05:29:56.227Z,6.54
2018-12-20T05:30:56.488Z,6.62
2018-12-20T05:31:56.337Z,6.56
2018-12-20T05:32:56.323Z,6.58
2018-12-20T05:33:56.252Z,6.62
2018-12-20T05:34:56.331Z,6.61
2018-12-20T05:35:56.045Z,6.62
2018-12-20T05:36:56.064Z,6.65
2018-12-20T05:37:56.084Z,6.61
2018-12-20T05:38:55.967Z,6.61
2018-12-20T05:39:56.017Z,6.68
2018-12-20T05:40:56.132Z,6.68
2018-12-20T05:41:55.878Z,6.69
2018-12-20T05:42:56.149Z,6.65
2018-12-20T05:43:55.820Z,6.72
2018-12-20T05:44:55.806Z,6.68
2018-12-20T05:46:04.280Z,6.65
2018-12-20T05:46:55.749Z,6.66
2018-12-20T05:47:55.792Z,6.63
2018-12-20T05:48:55.770Z,6.63
2018-12-20T05:49:55.733Z,6.68
2018-12-20T05:50:55.780Z,6.63
2018-12-20T05:51:55.597Z,6.65
2018-12-20T05:52:55.569Z,6.61
2018-12-20T05:53:55.672Z,6.61
2018-12-20T05:54:55.695Z,6.59
2018-12-20T05:55:55.667Z,6.51
2018-12-20T05:56:55.458Z,6.54
2018-12-20T05:57:55.679Z,6.59
2018-12-20T05:58:55.492Z,6.53
2018-12-20T05:59:55.576Z,6.56
2018-12-20T06:00:55.537Z,6.54
2018-12-20T06:01:55.510Z,6.56
2018-12-20T06:02:55.291Z,6.43
2018-12-20T06:03:55.373Z,6.50
2018-12-20T06:04:55.347Z,6.56
2018-12-20T06:05:55.402Z,6.43
2018-12-20T06:06:55.290Z,6.51
2018-12-20T06:07:55.151Z,6.54
2018-12-20T06:08:55.132Z,6.50
2018-12-20T06:09:55.097Z,6.56
2018-12-20T06:10:55.069Z,6.53
2018-12-20T06:11:55.187Z,6.56
2018-12-20T06:12:55.016Z,6.53
2018-12-20T06:13:55.336Z,6.41
2018-12-20T06:14:55.181Z,6.46
2018-12-20T06:15:54.959Z,6.46
2018-12-20T06:16:54.904Z,6.38
2018-12-20T06:17:55.171Z,6.40
2018-12-20T06:18:54.957Z,6.38
2018-12-20T06:19:54.819Z,6.40
2018-12-20T06:20:54.791Z,6.29
2018-12-20T06:21:54.919Z,6.35
2018-12-20T06:22:54.736Z,6.35
2018-12-20T06:23:54.708Z,6.30
2018-12-20T06:24:54.681Z,6.30
2018-12-20T06:25:54.653Z,6.36
2018-12-20T06:26:54.625Z,6.32
2018-12-20T06:27:54.597Z,6.30
2018-12-20T06:28:54.569Z,6.29
2018-12-20T06:29:54.542Z,6.33
2018-12-20T06:30:54.514Z,6.40
2018-12-20T06:31:54.487Z,6.40
2018-12-20T06:32:54.458Z,6.43
2018-12-20T06:33:54.431Z,6.38
2018-12-20T06:34:54.404Z,6.36
2018-12-20T06:35:54.375Z,6.40
2018-12-20T06:36:54.347Z,6.38
2018-12-20T06:37:54.321Z,6.35
2018-12-20T06:38:54.292Z,6.44
2018-12-20T06:39:54.263Z,6.40
2018-12-20T06:40:54.235Z,6.40
2018-12-20T06:41:54.212Z,6.44
2018-12-20T06:42:54.180Z,6.43
2018-12-20T06:43:54.153Z,6.47
2018-12-20T06:44:54.125Z,6.48
2018-12-20T06:45:54.097Z,6.46
2018-12-20T06:46:54.069Z,6.44
2018-12-20T06:47:54.041Z,6.47
2018-12-20T06:48:54.012Z,6.53
2018-12-20T06:49:53.985Z,6.53
2018-12-20T06:50:53.958Z,6.53
2018-12-20T06:51:55.839Z,6.59
2018-12-20T06:52:53.902Z,6.56
2018-12-20T06:53:59.132Z,6.58
2018-12-20T06:54:53.847Z,6.48
2018-12-20T06:55:53.818Z,6.48
2018-12-20T06:56:53.791Z,6.50
2018-12-20T06:57:53.764Z,6.63
2018-12-20T06:58:53.738Z,6.48
2018-12-20T06:59:53.707Z,6.59
2018-12-20T07:00:53.680Z,6.53
2018-12-20T07:01:53.653Z,6.47
2018-12-20T07:02:53.625Z,6.53
2018-12-20T07:03:53.596Z,6.56
2018-12-20T07:04:53.569Z,6.56
2018-12-20T07:05:53.541Z,6.56
2018-12-20T07:06:53.514Z,6.51
2018-12-20T07:07:53.487Z,6.58
2018-12-20T07:08:53.458Z,6.62
2018-12-20T07:09:53.431Z,6.65
2018-12-20T07:10:54.153Z,6.63
2018-12-20T07:11:53.376Z,6.59
2018-12-20T07:12:53.348Z,6.50
2018-12-20T07:13:53.323Z,6.53
2018-12-20T07:14:53.293Z,6.56
2018-12-20T07:15:53.264Z,6.51
2018-12-20T07:16:53.236Z,6.54
2018-12-20T07:17:53.209Z,6.63
2018-12-20T07:18:53.181Z,6.59
2018-12-20T07:19:53.155Z,6.50
2018-12-20T07:20:53.125Z,6.48
2018-12-20T07:21:53.098Z,6.44
2018-12-20T07:22:53.071Z,6.38
2018-12-20T07:23:53.043Z,6.47
2018-12-20T07:24:53.015Z,6.43
2018-12-20T07:25:52.987Z,6.48
2018-12-20T07:26:52.961Z,6.48
2018-12-20T07:27:52.933Z,6.43
2018-12-20T07:28:52.905Z,6.35
2018-12-20T07:29:52.878Z,6.35
2018-12-20T07:30:52.850Z,6.33
2018-12-20T07:31:52.820Z,6.41
2018-12-20T07:32:52.795Z,6.38
2018-12-20T07:33:52.764Z,6.40
2018-12-20T07:34:52.737Z,6.38
2018-12-20T07:35:52.709Z,6.41
2018-12-20T07:36:52.683Z,6.35
2018-12-20T07:37:52.653Z,6.32
2018-12-20T07:38:52.625Z,6.38
2018-12-20T07:39:52.598Z,6.40
2018-12-20T07:40:52.570Z,6.41
2018-12-20T07:41:52.545Z,6.38
2018-12-20T07:42:52.514Z,6.40
2018-12-20T07:43:52.485Z,6.44
2018-12-20T07:44:52.457Z,6.43
2018-12-20T07:45:52.430Z,6.33
2018-12-20T07:46:52.403Z,6.40
2018-12-20T07:47:52.374Z,6.26
2018-12-20T07:48:52.346Z,6.21
2018-12-20T07:49:52.318Z,6.32
2018-12-20T07:50:52.292Z,6.22
2018-12-20T07:51:52.265Z,6.16
2018-12-20T07:52:52.237Z,6.19
2018-12-20T07:53:52.207Z,6.25
2018-12-20T07:54:52.178Z,6.28
2018-12-20T07:55:52.149Z,6.21
2018-12-20T07:56:52.121Z,6.26
2018-12-20T07:57:52.094Z,6.38
2018-12-20T07:58:52.066Z,6.38
2018-12-20T07:59:52.038Z,6.36
2018-12-20T08:00:52.010Z,6.35
2018-12-20T08:01:51.982Z,6.40
2018-12-20T08:02:51.954Z,6.36
2018-12-20T08:03:52.676Z,6.33
2018-12-20T08:04:51.897Z,6.41
2018-12-20T08:05:51.949Z,6.47
2018-12-20T08:06:51.842Z,6.50
2018-12-20T08:07:51.814Z,6.41
2018-12-20T08:08:51.786Z,6.53
2018-12-20T08:09:51.759Z,6.53
2018-12-20T08:10:51.732Z,6.65
2018-12-20T08:11:51.702Z,6.62
2018-12-20T08:12:51.675Z,6.73
2018-12-20T08:13:51.648Z,6.76
2018-12-20T08:14:52.371Z,6.77
2018-12-20T08:15:51.598Z,6.80
2018-12-20T08:16:51.566Z,6.80
2018-12-20T08:17:51.536Z,6.79
2018-12-20T08:18:51.509Z,6.81
2018-12-20T08:19:51.499Z,6.97
2018-12-20T08:20:51.452Z,7.05
2018-12-20T08:21:51.425Z,7.05
2018-12-20T08:22:51.397Z,7.02
2018-12-20T08:23:51.369Z,7.12
2018-12-20T08:24:51.342Z,7.09
2018-12-20T08:25:51.318Z,7.08
2018-12-20T08:26:51.288Z,7.17
2018-12-20T08:27:51.260Z,7.15
2018-12-20T08:28:51.252Z,7.31
2018-12-20T08:29:51.204Z,7.24
2018-12-20T08:30:51.177Z,7.24
2018-12-20T08:31:51.149Z,7.19
2018-12-20T08:32:51.121Z,7.19
2018-12-20T08:33:51.096Z,7.20
2018-12-20T08:34:51.067Z,7.34
2018-12-20T08:35:51.039Z,7.26
2018-12-20T08:36:51.014Z,7.19
2018-12-20T08:37:50.993Z,7.02
2018-12-20T08:38:50.958Z,6.87
2018-12-20T08:39:50.931Z,6.94
2018-12-20T08:40:50.905Z,7.01
2018-12-20T08:41:51.628Z,7.02
2018-12-20T08:42:50.849Z,7.15
2018-12-20T08:43:50.822Z,6.99
2018-12-20T08:44:50.795Z,6.98
2018-12-20T08:45:50.770Z,6.99
2018-12-20T08:46:54.407Z,7.13
2018-12-20T08:47:50.713Z,7.08
2018-12-20T08:48:50.689Z,7.17
2018-12-20T08:49:50.659Z,7.19
2018-12-20T08:50:50.632Z,7.24
2018-12-20T08:51:50.605Z,7.22
2018-12-20T08:52:50.580Z,7.32
2018-12-20T08:53:50.551Z,7.29
2018-12-20T08:54:50.524Z,7.26
2018-12-20T08:55:50.497Z,7.22
2018-12-20T08:56:50.473Z,7.27
2018-12-20T08:57:50.444Z,7.31
2018-12-20T08:58:50.417Z,7.31
2018-12-20T08:59:50.390Z,7.27
2018-12-20T09:00:50.363Z,7.31
2018-12-20T09:01:50.338Z,7.29
2018-12-20T09:02:50.309Z,7.31
2018-12-20T09:03:52.534Z,7.22
2018-12-20T09:04:50.255Z,7.34
2018-12-20T09:05:50.229Z,7.29
2018-12-20T09:06:50.203Z,7.31
2018-12-20T09:07:50.174Z,7.26
2018-12-20T09:08:50.148Z,7.32
2018-12-20T09:09:50.872Z,7.34
2018-12-20T09:10:50.097Z,7.38
2018-12-20T09:11:50.067Z,7.52
2018-12-20T09:12:50.041Z,7.66
2018-12-20T09:13:50.014Z,7.58
2018-12-20T09:14:49.992Z,7.58
2018-12-20T09:15:49.960Z,7.59
2018-12-20T09:16:49.934Z,7.75
2018-12-20T09:17:49.909Z,7.78
2018-12-20T09:18:49.881Z,7.75
2018-12-20T09:19:49.854Z,7.74
2018-12-20T09:20:50.580Z,7.60
2018-12-20T09:21:49.848Z,7.69
2018-12-20T09:22:49.775Z,7.56
2018-12-20T09:23:49.748Z,7.58
2018-12-20T09:24:49.721Z,7.56
2018-12-20T09:25:49.695Z,7.59
2018-12-20T09:26:49.669Z,7.66
2018-12-20T09:27:49.642Z,7.53
2018-12-20T09:28:49.615Z,7.60
2018-12-20T09:29:49.590Z,7.60
2018-12-20T09:30:49.569Z,7.56
2018-12-20T09:31:49.538Z,7.67
2018-12-20T09:32:49.510Z,7.72
2018-12-20T09:33:49.484Z,7.75
2018-12-20T09:34:49.456Z,7.75
2018-12-20T09:35:49.430Z,7.59
2018-12-20T09:36:49.404Z,7.66
2018-12-20T09:37:49.377Z,7.77
2018-12-20T09:38:49.351Z,7.82
2018-12-20T09:39:49.324Z,7.87
2018-12-20T09:40:49.299Z,7.92
2018-12-20T09:41:49.272Z,7.93
2018-12-20T09:42:49.246Z,8.07
2018-12-20T09:43:49.218Z,7.97
2018-12-20T09:44:49.192Z,7.99
2018-12-20T09:45:49.166Z,7.90
2018-12-20T09:46:49.158Z,7.92
2018-12-20T09:47:49.112Z,7.93
2018-12-20T09:48:49.087Z,7.89
2018-12-20T09:49:49.061Z,7.87
2018-12-20T09:50:49.034Z,7.93
2018-12-20T09:51:49.006Z,7.94
2018-12-20T09:52:48.981Z,7.90
2018-12-20T09:53:48.957Z,7.92
2018-12-20T09:54:48.929Z,7.93
2018-12-20T09:55:48.902Z,7.92
2018-12-20T09:56:51.878Z,7.90
2018-12-20T09:57:48.850Z,7.92
2018-12-20T09:58:48.824Z,7.93
2018-12-20T09:59:48.797Z,7.97
2018-12-20T10:00:48.771Z,7.81
2018-12-20T10:01:48.746Z,7.79
2018-12-20T10:02:48.834Z,7.79
2018-12-20T10:03:48.698Z,7.81
2018-12-20T10:04:48.666Z,7.63
2018-12-20T10:05:48.640Z,7.72
2018-12-20T10:06:48.614Z,7.81
2018-12-20T10:07:48.587Z,7.90
2018-12-20T10:08:48.561Z,7.90
2018-12-20T10:09:48.535Z,8.11
2018-12-20T10:10:48.509Z,8.14
2018-12-20T10:11:48.481Z,8.11
2018-12-20T10:12:48.456Z,8.17
2018-12-20T10:13:48.433Z,8.07
2018-12-20T10:14:48.404Z,8.20
2018-12-20T10:15:48.377Z,8.12
2018-12-20T10:16:48.352Z,8.11
2018-12-20T10:17:48.325Z,8.20
2018-12-20T10:18:49.803Z,8.22
2018-12-20T10:19:48.274Z,8.22
2018-12-20T10:20:48.247Z,8.26
2018-12-20T10:21:48.221Z,8.35
2018-12-20T10:22:48.196Z,8.33
2018-12-20T10:23:48.168Z,8.37
2018-12-20T10:24:48.144Z,8.53
2018-12-20T10:25:48.117Z,8.62
2018-12-20T10:26:48.092Z,8.73
2018-12-20T10:27:48.065Z,8.78
2018-12-20T10:28:48.039Z,8.72
2018-12-20T10:29:48.013Z,8.78
2018-12-20T10:30:47.987Z,8.84
2018-12-20T10:31:47.961Z,8.73
2018-12-20T10:32:47.936Z,8.72
2018-12-20T10:33:47.911Z,8.78
2018-12-20T10:34:47.907Z,8.66
2018-12-20T10:35:50.862Z,8.65
2018-12-20T10:36:47.835Z,8.55
2018-12-20T10:37:47.808Z,8.78
2018-12-20T10:38:47.784Z,8.87
2018-12-20T10:39:47.757Z,9.02
2018-12-20T10:40:47.731Z,9.09
2018-12-20T10:41:49.208Z,9.16
2018-12-20T10:42:47.684Z,9.23
2018-12-20T10:43:47.655Z,9.15
2018-12-20T10:44:47.629Z,9.20
2018-12-20T10:45:47.604Z,9.18
2018-12-20T10:46:47.581Z,9.04
2018-12-20T10:47:47.553Z,9.02
2018-12-20T10:48:47.528Z,9.01
2018-12-20T10:49:47.502Z,8.94
2018-12-20T10:50:47.477Z,8.91
2018-12-20T10:51:47.450Z,8.94
2018-12-20T10:52:47.424Z,8.97
2018-12-20T10:53:47.402Z,8.86
2018-12-20T10:54:47.376Z,8.97
2018-12-20T10:55:47.348Z,9.05
2018-12-20T10:56:47.323Z,8.99
2018-12-20T10:57:47.297Z,9.05
2018-12-20T10:58:47.274Z,9.13
2018-12-20T10:59:47.246Z,9.12
2018-12-20T11:00:47.221Z,9.13
2018-12-20T11:01:47.195Z,9.25
2018-12-20T11:02:47.172Z,9.10
2018-12-20T11:03:47.143Z,9.23
2018-12-20T11:04:47.117Z,9.27
2018-12-20T11:05:47.093Z,9.18
2018-12-20T11:06:47.066Z,9.24
2018-12-20T11:07:47.039Z,9.23
2018-12-20T11:08:47.015Z,9.20
2018-12-20T11:09:46.988Z,9.25
2018-12-20T11:10:46.962Z,9.24
2018-12-20T11:11:46.938Z,9.18
2018-12-20T11:12:46.911Z,9.10
2018-12-20T11:13:46.885Z,8.87
2018-12-20T11:14:46.860Z,8.86
2018-12-20T11:15:46.833Z,8.93
2018-12-20T11:16:46.808Z,8.96
2018-12-20T11:17:46.782Z,8.96
2018-12-20T11:18:46.756Z,8.97
2018-12-20T11:19:46.730Z,9.01
2018-12-20T11:20:46.704Z,8.87
2018-12-20T11:21:46.684Z,8.87
2018-12-20T11:22:46.654Z,8.87
2018-12-20T11:23:46.627Z,8.88
2018-12-20T11:24:46.602Z,8.93
2018-12-20T11:25:46.578Z,8.93
2018-12-20T11:26:46.552Z,8.87
2018-12-20T11:27:46.524Z,8.96
2018-12-20T11:28:46.499Z,9.02
2018-12-20T11:29:46.473Z,8.88
2018-12-20T11:30:46.448Z,8.91
2018-12-20T11:31:46.421Z,8.93
2018-12-20T11:32:46.396Z,8.97
2018-12-20T11:33:46.372Z,8.99
2018-12-20T11:34:46.348Z,8.91
2018-12-20T11:35:46.319Z,9.02
2018-12-20T11:36:46.293Z,9.18
2018-12-20T11:37:46.269Z,9.02
2018-12-20T11:38:46.243Z,8.91
2018-12-20T11:39:46.217Z,8.90
2018-12-20T11:40:48.443Z,8.87
2018-12-20T11:41:46.166Z,9.01
2018-12-20T11:42:46.142Z,9.15
2018-12-20T11:43:46.114Z,9.20
2018-12-20T11:44:46.089Z,9.24
2018-12-20T11:45:46.064Z,9.30
2018-12-20T11:46:46.039Z,9.39
2018-12-20T11:47:46.378Z,9.31
2018-12-20T11:48:45.987Z,9.40
2018-12-20T11:49:45.963Z,9.42
2018-12-20T11:50:46.000Z,9.58
2018-12-20T11:51:45.914Z,9.53
2018-12-20T11:52:45.886Z,9.50
2018-12-20T11:53:45.862Z,9.31
2018-12-20T11:54:45.836Z,9.27
2018-12-20T11:55:45.809Z,9.10
2018-12-20T11:56:45.785Z,9.02
2018-12-20T11:57:47.263Z,9.04
2018-12-20T11:58:45.735Z,9.02
2018-12-20T11:59:45.712Z,9.01
2018-12-20T12:00:45.684Z,8.97
2018-12-20T12:01:45.659Z,9.01
2018-12-20T12:02:45.634Z,8.88
2018-12-20T12:03:45.609Z,8.87
2018-12-20T12:04:45.584Z,8.79
2018-12-20T12:05:45.558Z,8.73
2018-12-20T12:06:45.533Z,8.81
2018-12-20T12:07:45.507Z,8.76
2018-12-20T12:08:45.482Z,8.87
2018-12-20T12:09:45.458Z,8.83
2018-12-20T12:10:45.431Z,8.86
2018-12-20T12:11:45.405Z,8.93
2018-12-20T12:12:45.380Z,8.91
2018-12-20T12:13:45.355Z,8.97
2018-12-20T12:14:45.329Z,8.96
2018-12-20T12:15:45.303Z,9.04
2018-12-20T12:16:45.277Z,8.99
2018-12-20T12:17:45.252Z,9.01
2018-12-20T12:18:45.227Z,9.01
2018-12-20T12:19:45.199Z,8.93
2018-12-20T12:20:45.176Z,8.93
2018-12-20T12:21:45.148Z,8.96
2018-12-20T12:22:45.124Z,8.93
2018-12-20T12:23:45.097Z,8.88
2018-12-20T12:24:45.073Z,8.94
2018-12-20T12:25:45.847Z,8.93
2018-12-20T12:26:45.021Z,8.84
2018-12-20T12:27:44.996Z,8.88
2018-12-20T12:28:44.970Z,8.86
2018-12-20T12:29:44.947Z,8.78
2018-12-20T12:30:44.920Z,8.86
2018-12-20T12:31:44.894Z,8.96
2018-12-20T12:32:44.867Z,8.93
2018-12-20T12:33:44.842Z,8.91
2018-12-20T12:34:44.817Z,8.93
2018-12-20T12:35:44.789Z,8.87
2018-12-20T12:36:45.515Z,8.91
2018-12-20T12:37:44.738Z,8.91
2018-12-20T12:38:44.713Z,8.91
2018-12-20T12:39:44.688Z,8.96
2018-12-20T12:40:44.661Z,8.96
2018-12-20T12:41:44.635Z,8.94
2018-12-20T12:42:44.609Z,8.86
2018-12-20T12:43:44.585Z,8.88
2018-12-20T12:44:44.560Z,8.94
2018-12-20T12:45:44.533Z,8.94
2018-12-20T12:46:44.506Z,8.97
2018-12-20T12:47:47.483Z,9.06
2018-12-20T12:48:44.454Z,9.02
2018-12-20T12:49:44.431Z,9.04
2018-12-20T12:50:44.403Z,8.97
2018-12-20T12:51:52.988Z,8.96
2018-12-20T12:52:44.351Z,8.90
2018-12-20T12:53:45.076Z,8.91
2018-12-20T12:54:44.301Z,8.91
2018-12-20T12:55:44.273Z,8.90
2018-12-20T12:56:44.248Z,8.87
2018-12-20T12:57:44.222Z,8.90
2018-12-20T12:58:44.196Z,8.84
2018-12-20T12:59:44.170Z,8.87
2018-12-20T13:00:44.144Z,8.84
2018-12-20T13:01:44.118Z,8.88
2018-12-20T13:02:44.096Z,8.93
2018-12-20T13:03:44.067Z,8.91
2018-12-20T13:04:44.042Z,8.96
2018-12-20T13:05:44.016Z,9.01
2018-12-20T13:06:43.993Z,8.91
2018-12-20T13:07:43.964Z,8.93
2018-12-20T13:08:43.938Z,8.88
2018-12-20T13:09:43.914Z,8.97
2018-12-20T13:10:43.887Z,8.94
2018-12-20T13:11:43.862Z,8.91
2018-12-20T13:12:43.839Z,9.02
2018-12-20T13:13:43.810Z,9.04
2018-12-20T13:14:43.784Z,9.02
2018-12-20T13:15:43.759Z,9.02
2018-12-20T13:16:43.732Z,9.04
2018-12-20T13:17:43.708Z,9.04